KOLF/OLF METAR and TAF weather

Enter ICAO airport designator
Station Type Date Time Source
KOLF METAR 2021/04/18 02:53 UTC NOAA

KOLF 180253Z AUTO 22005KT 10SM CLR 10/M05 A3002 RMK AO2 SLP181 T01001050 56013


Station Type Date Time Source
KOLF Decoded METAR 2021/04/18 02:53 UTC NOAA

WOLF POINT CLAYTON AIRPORT, MT, United States (KOLF) 48-06N 105-35W 604M
Apr 17, 2021 - 10:53 PM EDT / 2021.04.18 0253 UTC
Wind: from the SW (220 degrees) at 6 MPH (5 KT):0
Visibility: 10 mile(s):0
Sky conditions: clear
Temperature: 50.0 F (10.0 C)
Dew Point: 23.0 F (-5.0 C)
Relative Humidity: 34%
Pressure (altimeter): 30.02 in. Hg (1016 hPa)
Pressure tendency: 0.04 inches (1.3 hPa) lower than three hours ago
ob: KOLF 180253Z AUTO 22005KT 10SM CLR 10/M05 A3002 RMK AO2 SLP181 T01001050 56013
cycle: 3

Station Type Date Time Source
KOLF TAF 2021/04/17 18:46 UTC NOAA

TAF KOLF 171744Z 1718/1818 28007KT P6SM SCT150
FM181200 02010G19KT 6SM -RA BR BKN027
FM181300 03011KT 6SM -RA BR BKN014 PROB30 1813/1814 P6SM -SNRA BKN006
FM181400 03012KT 4SM -RASN BR SCT005 OVC011

Example: see airport list